Aeroporto :
LOGIN :

Iscrizione | Disclaimer

   EN    FR    IT 

 










Sommario :    VFR   VFR Marginale   IFR   IFR Intensivo   IFR Molto Intensivo
Visibilità : 
Base nubi : 
>= 8 km
>= 3000ft
5 / 8 km
1000 / 3000 ft
1500m / 5 km
500 / 1000 ft
800 / 1500m
200 / 500 ft
< 800m
< 200 ft
Simboli :   Temporali  Nebbia  Neve Forte  Precipitazioni Forti  Vento > 20 kt
SIGMETs :   Varie  Temporali  Ghiacco  Turbolenza  Onda orograficha  Ceneri Vulcaniche






- Altitudine del aeroporto : 74 ft
- Codice IATA : EIN


EHEH - Eindhoven

ULTIMO METAR :
  • 212255Z AUTO 32004KT 310V030 0450 FZFG OVC000 M02/M02 Q1039 RED RMK LVP DELTA

METARs OBSOLETI :
  • 212232Z AUTO 33003KT 260V060 0400 FZFG OVC000 M02/M02 Q1039 RED RMK LVP DELTA
  • 212225Z AUTO VRB02KT 0400 FZFG OVC000 M02/M02 Q1039 RED RMK LVP DELTA
  • 212155Z AUTO 33005KT 260V010 0400 FZFG OVC000 M02/M02 Q1039 RED RMK LVP DELTA
  • 212125Z AUTO 22003KT 190V340 0350 FZFG OVC000/// M02/M02 Q1039 RED RMK LVP DELTA
  • 212055Z AUTO 21003KT 180V290 0350 FZFG OVC000/// M02/M02 Q1039 RED RMK LVP DELTA
  • 212041Z AUTO 21003KT 160V230 0400 FZFG OVC000/// M02/M02 Q1040 RED RMK LVP DELTA
  • 212025Z AUTO VRB02KT 0450 FZFG OVC000 M02/M02 Q1040 RED RMK LVP DELTA

TAF TAF EHEH
Valido dal 21 a 18 ore il 23 a 00 ore UTC


211737Z 2118/2224 24003KT 0300 FG FZFG BKN000
PROB30
TEMPO 2121/2206 1000 BR BKN001 OVC008
BECMG 2208/2210 1200 BR SCT001 BKN002
TEMPO 2208/2214 2500 BR -DZ SCT002 BKN005
PROB40
TEMPO 2214/2218 0800 FG BKN001
BECMG 2218/2222 VRB01KT 0800 FG BKN001
TEMPO 2218/2224 0300 FG OVC000



MetMap, La meteo Aeronautica in un colpo d'occhio ! - Copyright ORBIFLY Dicembre 2007 - Disclaimer

ORBIFLY MET'MAP TEAM :

Programmazione e sviluppo : Alexandra Zaïnal
Concezione : Baudouin d'Aumeries
Aiuto per la programmazione : Marc-Olivier Méhu
Supporto tecnico e logistico : Manuel Goepfert
Aiuto per la traduzione : Arnaldo La Scala

Contatto : metmap@orbifly.com




FONTI E CREDITI :

   NOAA